sensor_id;sensor_type;location;lat;lon;timestamp;pressure;altitude;pressure_sealevel;temperature;humidity
50268;BME280;36153;50.960;6.220;2023-11-21T00:02:11;100048.63;;;12.32;68.96
50268;BME280;36153;50.960;6.220;2023-11-21T00:05:12;100050.38;;;12.36;68.66
50268;BME280;36153;50.960;6.220;2023-11-21T00:08:14;100055.59;;;12.33;68.57
50268;BME280;36153;50.960;6.220;2023-11-21T00:11:15;100057.31;;;12.34;68.52
50268;BME280;36153;50.960;6.220;2023-11-21T00:14:15;100061.69;;;12.34;68.53
50268;BME280;36153;50.960;6.220;2023-11-21T00:17:15;100066.91;;;12.35;68.71
50268;BME280;36153;50.960;6.220;2023-11-21T00:20:16;100071.25;;;12.28;68.66
50268;BME280;36153;50.960;6.220;2023-11-21T00:23:16;100067.81;;;12.25;68.92
50268;BME280;36153;50.960;6.220;2023-11-21T00:26:18;100075.63;;;12.25;68.65
50268;BME280;36153;50.960;6.220;2023-11-21T00:29:18;100079.97;;;12.13;68.93
50268;BME280;36153;50.960;6.220;2023-11-21T00:32:19;100070.41;;;12.16;68.71
50268;BME280;36153;50.960;6.220;2023-11-21T00:35:19;100079.09;;;12.25;68.74
50268;BME280;36153;50.960;6.220;2023-11-21T00:38:19;100067.78;;;12.28;68.82
50268;BME280;36153;50.960;6.220;2023-11-21T00:41:20;100073.84;;;12.32;68.49
50268;BME280;36153;50.960;6.220;2023-11-21T00:44:20;100073.88;;;12.28;68.56
50268;BME280;36153;50.960;6.220;2023-11-21T00:47:21;100081.72;;;12.33;68.75
50268;BME280;36153;50.960;6.220;2023-11-21T00:50:22;100085.19;;;12.32;68.59
50268;BME280;36153;50.960;6.220;2023-11-21T00:53:23;100087.78;;;12.31;68.94
50268;BME280;36153;50.960;6.220;2023-11-21T00:56:23;100092.16;;;12.22;68.63
50268;BME280;36153;50.960;6.220;2023-11-21T00:59:23;100095.66;;;12.18;69.05
50268;BME280;36153;50.960;6.220;2023-11-21T01:02:24;100093.91;;;12.12;68.62
50268;BME280;36153;50.960;6.220;2023-11-21T01:05:25;100100.00;;;12.11;68.76
50268;BME280;36153;50.960;6.220;2023-11-21T01:08:27;100106.09;;;12.17;68.36
50268;BME280;36153;50.960;6.220;2023-11-21T01:11:27;100105.19;;;12.18;68.03
50268;BME280;36153;50.960;6.220;2023-11-21T01:14:27;100111.28;;;12.13;68.21
50268;BME280;36153;50.960;6.220;2023-11-21T01:17:28;100103.47;;;12.10;68.24
50268;BME280;36153;50.960;6.220;2023-11-21T01:20:28;100100.84;;;12.13;67.99
50268;BME280;36153;50.960;6.220;2023-11-21T01:23:28;100101.75;;;12.09;68.08
50268;BME280;36153;50.960;6.220;2023-11-21T01:26:29;100108.69;;;12.21;68.16
50268;BME280;36153;50.960;6.220;2023-11-21T01:29:30;100115.66;;;12.19;68.03
50268;BME280;36153;50.960;6.220;2023-11-21T01:32:30;100114.78;;;12.16;67.89
50268;BME280;36153;50.960;6.220;2023-11-21T01:35:30;100125.22;;;12.14;68.27
50268;BME280;36153;50.960;6.220;2023-11-21T01:38:31;100122.63;;;12.12;68.15
50268;BME280;36153;50.960;6.220;2023-11-21T01:41:32;100127.81;;;12.22;67.89
50268;BME280;36153;50.960;6.220;2023-11-21T01:44:32;100117.38;;;12.17;68.04
50268;BME280;36153;50.960;6.220;2023-11-21T01:47:33;100120.88;;;12.22;68.08
50268;BME280;36153;50.960;6.220;2023-11-21T01:50:36;100123.44;;;12.30;68.35
50268;BME280;36153;50.960;6.220;2023-11-21T01:53:36;100122.59;;;12.31;68.06
50268;BME280;36153;50.960;6.220;2023-11-21T01:56:37;100126.06;;;12.33;67.73
50268;BME280;36153;50.960;6.220;2023-11-21T01:59:38;100126.94;;;12.35;67.55
50268;BME280;36153;50.960;6.220;2023-11-21T02:02:38;100126.94;;;12.35;67.39
50268;BME280;36153;50.960;6.220;2023-11-21T02:05:39;100131.25;;;12.41;67.48
50268;BME280;36153;50.960;6.220;2023-11-21T02:08:39;100129.50;;;12.40;67.67
50268;BME280;36153;50.960;6.220;2023-11-21T02:11:39;100138.25;;;12.40;67.62
50268;BME280;36153;50.960;6.220;2023-11-21T02:14:40;100139.09;;;12.42;67.24
50268;BME280;36153;50.960;6.220;2023-11-21T02:17:42;100137.38;;;12.43;67.06
50268;BME280;36153;50.960;6.220;2023-11-21T02:20:43;100147.78;;;12.38;67.15
50268;BME280;36153;50.960;6.220;2023-11-21T02:23:44;100141.72;;;12.39;67.16
50268;BME280;36153;50.960;6.220;2023-11-21T02:26:47;100150.38;;;12.41;67.25
50268;BME280;36153;50.960;6.220;2023-11-21T02:29:47;100155.63;;;12.49;66.92
50268;BME280;36153;50.960;6.220;2023-11-21T02:32:48;100151.25;;;12.46;67.11
50268;BME280;36153;50.960;6.220;2023-11-21T02:35:49;100151.25;;;12.46;67.19
50268;BME280;36153;50.960;6.220;2023-11-21T02:38:49;100159.97;;;12.49;67.27
50268;BME280;36153;50.960;6.220;2023-11-21T02:41:50;100155.63;;;12.46;66.94
50268;BME280;36153;50.960;6.220;2023-11-21T02:44:50;100156.50;;;12.40;67.08
50268;BME280;36153;50.960;6.220;2023-11-21T02:47:51;100158.22;;;12.41;67.61
50268;BME280;36153;50.960;6.220;2023-11-21T02:50:53;100153.00;;;12.41;67.19
50268;BME280;36153;50.960;6.220;2023-11-21T02:53:53;100155.63;;;12.49;67.44
50268;BME280;36153;50.960;6.220;2023-11-21T02:56:54;100159.94;;;12.55;67.42
50268;BME280;36153;50.960;6.220;2023-11-21T02:59:55;100159.06;;;12.60;67.25
50268;BME280;36153;50.960;6.220;2023-11-21T03:02:56;100157.34;;;12.61;67.03
50268;BME280;36153;50.960;6.220;2023-11-21T03:05:56;100156.44;;;12.62;67.04
50268;BME280;36153;50.960;6.220;2023-11-21T03:08:57;100159.06;;;12.60;66.76
50268;BME280;36153;50.960;6.220;2023-11-21T03:11:57;100165.16;;;12.64;66.75
50268;BME280;36153;50.960;6.220;2023-11-21T03:14:57;100153.84;;;12.65;66.44
50268;BME280;36153;50.960;6.220;2023-11-21T03:17:58;100159.09;;;12.56;66.72
50268;BME280;36153;50.960;6.220;2023-11-21T03:20:58;100167.78;;;12.61;66.75
50268;BME280;36153;50.960;6.220;2023-11-21T03:23:59;100166.00;;;12.66;66.62
50268;BME280;36153;50.960;6.220;2023-11-21T03:27:00;100172.97;;;12.69;66.32
50268;BME280;36153;50.960;6.220;2023-11-21T03:30:00;100183.47;;;12.61;66.81
50268;BME280;36153;50.960;6.220;2023-11-21T03:33:01;100183.44;;;12.62;66.75
50268;BME280;36153;50.960;6.220;2023-11-21T03:36:01;100187.78;;;12.71;66.77
50268;BME280;36153;50.960;6.220;2023-11-21T03:39:01;100196.50;;;12.66;66.56
50268;BME280;36153;50.960;6.220;2023-11-21T03:42:02;100206.94;;;12.58;67.01
50268;BME280;36153;50.960;6.220;2023-11-21T03:45:03;100200.84;;;12.63;67.12
50268;BME280;36153;50.960;6.220;2023-11-21T03:48:03;100201.69;;;12.73;67.29
50268;BME280;36153;50.960;6.220;2023-11-21T03:51:04;100200.81;;;12.77;67.11
50268;BME280;36153;50.960;6.220;2023-11-21T03:54:04;100208.66;;;12.79;66.58
50268;BME280;36153;50.960;6.220;2023-11-21T03:57:04;100218.22;;;12.78;66.61
50268;BME280;36153;50.960;6.220;2023-11-21T04:00:06;100222.56;;;12.73;66.74
50268;BME280;36153;50.960;6.220;2023-11-21T04:03:09;100212.97;;;12.81;66.84
50268;BME280;36153;50.960;6.220;2023-11-21T04:06:09;100216.47;;;12.85;66.71
50268;BME280;36153;50.960;6.220;2023-11-21T04:09:10;100217.34;;;12.92;66.73
50268;BME280;36153;50.960;6.220;2023-11-21T04:12:10;100227.78;;;12.92;66.44
50268;BME280;36153;50.960;6.220;2023-11-21T04:15:11;100224.28;;;12.99;66.39
50268;BME280;36153;50.960;6.220;2023-11-21T04:18:13;100221.63;;;13.07;66.28
50268;BME280;36153;50.960;6.220;2023-11-21T04:21:13;100225.97;;;13.09;66.17
50268;BME280;36153;50.960;6.220;2023-11-21T04:24:14;100225.09;;;13.12;65.84
50268;BME280;36153;50.960;6.220;2023-11-21T04:27:14;100220.75;;;13.15;65.84
50268;BME280;36153;50.960;6.220;2023-11-21T04:30:15;100225.09;;;13.12;66.01
50268;BME280;36153;50.960;6.220;2023-11-21T04:33:15;100229.47;;;13.10;65.49
50268;BME280;36153;50.960;6.220;2023-11-21T04:36:16;100228.59;;;13.15;65.82
50268;BME280;36153;50.960;6.220;2023-11-21T04:39:16;100231.22;;;13.12;65.81
50268;BME280;36153;50.960;6.220;2023-11-21T04:42:17;100236.47;;;13.00;66.03
50268;BME280;36153;50.960;6.220;2023-11-21T04:45:18;100240.84;;;12.95;66.18
50268;BME280;36153;50.960;6.220;2023-11-21T04:48:18;100240.84;;;12.90;66.41
50268;BME280;36153;50.960;6.220;2023-11-21T04:51:18;100236.50;;;12.81;66.76
50268;BME280;36153;50.960;6.220;2023-11-21T04:54:19;100234.78;;;12.74;67.04
50268;BME280;36153;50.960;6.220;2023-11-21T04:57:19;100236.53;;;12.66;67.39
50268;BME280;36153;50.960;6.220;2023-11-21T05:00:20;100234.78;;;12.74;67.28
50268;BME280;36153;50.960;6.220;2023-11-21T05:03:21;100237.41;;;12.62;67.67
50268;BME280;36153;50.960;6.220;2023-11-21T05:06:23;100247.88;;;12.56;67.92
50268;BME280;36153;50.960;6.220;2023-11-21T05:09:24;100248.75;;;12.61;68.10
50268;BME280;36153;50.960;6.220;2023-11-21T05:12:24;100251.31;;;12.59;68.24
50268;BME280;36153;50.960;6.220;2023-11-21T05:15:24;100259.19;;;12.61;67.90
50268;BME280;36153;50.960;6.220;2023-11-21T05:18:25;100260.00;;;12.69;68.06
50268;BME280;36153;50.960;6.220;2023-11-21T05:21:30;100257.38;;;12.81;67.74
50268;BME280;36153;50.960;6.220;2023-11-21T05:24:33;100260.00;;;12.89;67.57
50268;BME280;36153;50.960;6.220;2023-11-21T05:27:34;100270.47;;;12.80;67.54
50268;BME280;36153;50.960;6.220;2023-11-21T05:30:34;100268.72;;;12.82;67.55
50268;BME280;36153;50.960;6.220;2023-11-21T05:33:35;100274.81;;;12.84;67.40
50268;BME280;36153;50.960;6.220;2023-11-21T05:36:35;100285.25;;;12.72;67.59
50268;BME280;36153;50.960;6.220;2023-11-21T05:39:35;100289.63;;;12.60;67.97
50268;BME280;36153;50.960;6.220;2023-11-21T05:42:36;100290.50;;;12.70;67.89
50268;BME280;36153;50.960;6.220;2023-11-21T05:45:38;100289.63;;;12.80;67.74
50268;BME280;36153;50.960;6.220;2023-11-21T05:48:39;100297.47;;;12.80;67.72
50268;BME280;36153;50.960;6.220;2023-11-21T05:51:39;100293.97;;;12.75;67.82
50268;BME280;36153;50.960;6.220;2023-11-21T05:54:40;100297.44;;;12.77;67.89
50268;BME280;36153;50.960;6.220;2023-11-21T05:57:42;100306.16;;;12.81;67.85
50268;BME280;36153;50.960;6.220;2023-11-21T06:00:43;100316.63;;;12.75;67.82
50268;BME280;36153;50.960;6.220;2023-11-21T06:03:43;100317.47;;;12.78;67.81
50268;BME280;36153;50.960;6.220;2023-11-21T06:06:44;100327.06;;;12.84;67.68
50268;BME280;36153;50.960;6.220;2023-11-21T06:09:44;100331.38;;;12.93;67.13
50268;BME280;36153;50.960;6.220;2023-11-21T06:12:45;100340.97;;;12.81;67.46
50268;BME280;36153;50.960;6.220;2023-11-21T06:15:45;100334.03;;;12.80;67.46
50268;BME280;36153;50.960;6.220;2023-11-21T06:18:45;100345.34;;;12.79;67.55
50268;BME280;36153;50.960;6.220;2023-11-21T06:21:46;100347.09;;;12.73;67.50
50268;BME280;36153;50.960;6.220;2023-11-21T06:24:47;100349.69;;;12.71;67.87
50268;BME280;36153;50.960;6.220;2023-11-21T06:27:48;100352.28;;;12.77;67.73
50268;BME280;36153;50.960;6.220;2023-11-21T06:30:49;100350.59;;;12.75;67.99
50268;BME280;36153;50.960;6.220;2023-11-21T06:33:50;100353.19;;;12.79;67.96
50268;BME280;36153;50.960;6.220;2023-11-21T06:36:52;100354.03;;;12.66;68.12
50268;BME280;36153;50.960;6.220;2023-11-21T06:39:52;100361.88;;;12.81;68.02
50268;BME280;36153;50.960;6.220;2023-11-21T06:42:53;100357.53;;;12.84;68.09
50268;BME280;36153;50.960;6.220;2023-11-21T06:45:53;100365.38;;;12.88;67.74
50268;BME280;36153;50.960;6.220;2023-11-21T06:48:54;100372.34;;;12.85;67.77
50268;BME280;36153;50.960;6.220;2023-11-21T06:51:54;100381.91;;;12.86;67.69
50268;BME280;36153;50.960;6.220;2023-11-21T06:54:55;100384.53;;;12.83;68.01
50268;BME280;36153;50.960;6.220;2023-11-21T06:57:56;100386.28;;;12.84;67.92
50268;BME280;36153;50.960;6.220;2023-11-21T07:00:58;100390.63;;;12.77;68.22
50268;BME280;36153;50.960;6.220;2023-11-21T07:03:58;100399.31;;;12.73;68.54
50268;BME280;36153;50.960;6.220;2023-11-21T07:06:59;100407.16;;;12.74;68.25
50268;BME280;36153;50.960;6.220;2023-11-21T07:09:59;100406.28;;;12.60;69.17
50268;BME280;36153;50.960;6.220;2023-11-21T07:13:03;100406.25;;;12.69;68.91
50268;BME280;36153;50.960;6.220;2023-11-21T07:16:03;100407.09;;;12.42;69.71
50268;BME280;36153;50.960;6.220;2023-11-21T07:19:05;100406.28;;;12.58;69.50
50268;BME280;36153;50.960;6.220;2023-11-21T07:22:08;100411.50;;;12.64;69.38
50268;BME280;36153;50.960;6.220;2023-11-21T07:25:09;100418.47;;;12.81;69.03
50268;BME280;36153;50.960;6.220;2023-11-21T07:28:12;100427.19;;;12.80;69.08
50268;BME280;36153;50.960;6.220;2023-11-21T07:31:12;100428.94;;;12.83;68.80
50268;BME280;36153;50.960;6.220;2023-11-21T07:34:13;100434.13;;;12.69;69.17
50268;BME280;36153;50.960;6.220;2023-11-21T07:37:13;100425.44;;;12.73;69.03
50268;BME280;36153;50.960;6.220;2023-11-21T07:40:14;100438.53;;;12.80;69.13
50268;BME280;36153;50.960;6.220;2023-11-21T07:43:14;100436.78;;;12.95;68.80
50268;BME280;36153;50.960;6.220;2023-11-21T07:46:15;100446.38;;;12.94;68.43
50268;BME280;36153;50.960;6.220;2023-11-21T07:49:16;100451.56;;;12.93;68.51
50268;BME280;36153;50.960;6.220;2023-11-21T07:52:17;100452.44;;;13.01;68.87
50268;BME280;36153;50.960;6.220;2023-11-21T07:55:18;100455.94;;;13.03;68.76
50268;BME280;36153;50.960;6.220;2023-11-21T07:58:20;100468.16;;;13.10;68.62
50268;BME280;36153;50.960;6.220;2023-11-21T08:01:21;100467.28;;;13.14;68.43
50268;BME280;36153;50.960;6.220;2023-11-21T08:04:21;100476.00;;;13.26;68.34
50268;BME280;36153;50.960;6.220;2023-11-21T08:07:22;100474.25;;;13.25;68.55
50268;BME280;36153;50.960;6.220;2023-11-21T08:10:22;100480.34;;;13.27;68.59
50268;BME280;36153;50.960;6.220;2023-11-21T08:13:27;100483.81;;;13.26;68.53
50268;BME280;36153;50.960;6.220;2023-11-21T08:16:27;100487.34;;;13.28;68.64
50268;BME280;36153;50.960;6.220;2023-11-21T08:19:28;100489.94;;;13.26;68.55
50268;BME280;36153;50.960;6.220;2023-11-21T08:22:28;100494.31;;;13.32;68.46
50268;BME280;36153;50.960;6.220;2023-11-21T08:25:29;100499.56;;;13.35;68.28
50268;BME280;36153;50.960;6.220;2023-11-21T08:28:30;100510.88;;;13.36;68.39
50268;BME280;36153;50.960;6.220;2023-11-21T08:31:30;100509.13;;;13.48;68.34
50268;BME280;36153;50.960;6.220;2023-11-21T08:34:31;100507.41;;;13.60;68.33
50268;BME280;36153;50.960;6.220;2023-11-21T08:37:31;100505.66;;;13.48;67.97
50268;BME280;36153;50.960;6.220;2023-11-21T08:40:34;100509.97;;;13.72;68.09
50268;BME280;36153;50.960;6.220;2023-11-21T08:43:35;100509.09;;;13.86;67.18
50268;BME280;36153;50.960;6.220;2023-11-21T08:46:36;100527.38;;;13.98;67.13
50268;BME280;36153;50.960;6.220;2023-11-21T08:49:37;100522.16;;;13.98;66.55
50268;BME280;36153;50.960;6.220;2023-11-21T08:52:38;100529.13;;;13.93;66.53
50268;BME280;36153;50.960;6.220;2023-11-21T08:55:40;100530.88;;;14.02;66.53
50268;BME280;36153;50.960;6.220;2023-11-21T08:58:40;100517.78;;;14.08;66.54
50268;BME280;36153;50.960;6.220;2023-11-21T09:01:42;100539.56;;;14.08;66.35
50268;BME280;36153;50.960;6.220;2023-11-21T09:04:42;100529.00;;;14.38;65.73
50268;BME280;36153;50.960;6.220;2023-11-21T09:07:43;100537.75;;;14.37;65.49
50268;BME280;36153;50.960;6.220;2023-11-21T09:10:46;100551.75;;;14.26;65.66
50268;BME280;36153;50.960;6.220;2023-11-21T09:13:47;100556.97;;;14.28;65.71
50268;BME280;36153;50.960;6.220;2023-11-21T09:16:47;100558.69;;;14.38;65.90
50268;BME280;36153;50.960;6.220;2023-11-21T09:19:48;100569.19;;;14.29;65.54
50268;BME280;36153;50.960;6.220;2023-11-21T09:22:51;100567.47;;;14.23;65.56
50268;BME280;36153;50.960;6.220;2023-11-21T09:25:51;100570.94;;;14.31;65.23
50268;BME280;36153;50.960;6.220;2023-11-21T09:28:52;100576.16;;;14.33;65.50
50268;BME280;36153;50.960;6.220;2023-11-21T09:31:53;100574.47;;;14.20;65.67
50268;BME280;36153;50.960;6.220;2023-11-21T09:34:54;100579.63;;;14.44;65.75
50268;BME280;36153;50.960;6.220;2023-11-21T09:37:58;100580.44;;;14.62;64.79
50268;BME280;36153;50.960;6.220;2023-11-21T09:40:59;100585.69;;;14.54;65.26
50268;BME280;36153;50.960;6.220;2023-11-21T09:44:02;100584.84;;;14.54;64.92
50268;BME280;36153;50.960;6.220;2023-11-21T09:47:04;100583.06;;;14.56;64.51
50268;BME280;36153;50.960;6.220;2023-11-21T09:50:11;100584.81;;;14.57;64.55
50268;BME280;36153;50.960;6.220;2023-11-21T09:53:19;100583.06;;;14.71;64.92
50268;BME280;36153;50.960;6.220;2023-11-21T09:56:21;100583.88;;;14.82;63.90
50268;BME280;36153;50.960;6.220;2023-11-21T09:59:24;100584.78;;;14.78;63.74
50268;BME280;36153;50.960;6.220;2023-11-21T10:02:26;100585.66;;;14.76;63.69
50268;BME280;36153;50.960;6.220;2023-11-21T10:05:28;100587.34;;;14.86;63.71
50268;BME280;36153;50.960;6.220;2023-11-21T10:08:29;100587.28;;;15.03;63.54
50268;BME280;36153;50.960;6.220;2023-11-21T10:11:29;100598.69;;;14.93;63.08
50268;BME280;36153;50.960;6.220;2023-11-21T10:14:30;100599.50;;;15.09;63.07
50268;BME280;36153;50.960;6.220;2023-11-21T10:17:31;100608.25;;;15.03;62.80
50268;BME280;36153;50.960;6.220;2023-11-21T10:20:37;100605.53;;;15.15;62.59
50268;BME280;36153;50.960;6.220;2023-11-21T10:23:38;100614.44;;;14.90;62.92
50268;BME280;36153;50.960;6.220;2023-11-21T10:26:39;100614.38;;;15.04;63.54
50268;BME280;36153;50.960;6.220;2023-11-21T10:29:39;100617.88;;;14.98;63.08
50268;BME280;36153;50.960;6.220;2023-11-21T10:32:40;100621.34;;;15.00;63.26
50268;BME280;36153;50.960;6.220;2023-11-21T10:35:47;100611.84;;;14.85;62.87
50268;BME280;36153;50.960;6.220;2023-11-21T10:38:54;100612.66;;;14.92;63.17
50268;BME280;36153;50.960;6.220;2023-11-21T10:41:55;100612.66;;;14.90;63.23
50268;BME280;36153;50.960;6.220;2023-11-21T10:44:56;100617.13;;;14.71;63.40
50268;BME280;36153;50.960;6.220;2023-11-21T10:47:56;100610.94;;;14.88;63.93
50268;BME280;36153;50.960;6.220;2023-11-21T10:50:56;100608.28;;;14.95;63.58
50268;BME280;36153;50.960;6.220;2023-11-21T10:53:57;100608.25;;;14.98;63.22
50268;BME280;36153;50.960;6.220;2023-11-21T10:57:00;100610.84;;;15.06;63.98
50268;BME280;36153;50.960;6.220;2023-11-21T11:00:01;100605.41;;;15.40;63.38
50268;BME280;36153;50.960;6.220;2023-11-21T11:03:03;100614.00;;;15.59;62.37
50268;BME280;36153;50.960;6.220;2023-11-21T11:06:04;100608.78;;;15.56;62.26
50268;BME280;36153;50.960;6.220;2023-11-21T11:09:08;100614.16;;;15.36;61.96
50268;BME280;36153;50.960;6.220;2023-11-21T11:12:13;100614.16;;;15.42;62.35
50268;BME280;36153;50.960;6.220;2023-11-21T11:15:19;100622.03;;;15.34;62.18
50268;BME280;36153;50.960;6.220;2023-11-21T11:18:20;100618.63;;;15.17;62.94
50268;BME280;36153;50.960;6.220;2023-11-21T11:21:42;100623.78;;;15.35;62.98
50268;BME280;36153;50.960;6.220;2023-11-21T11:28:08;100628.03;;;15.57;62.27
50268;BME280;36153;50.960;6.220;2023-11-21T11:31:33;100634.31;;;15.34;62.25
50268;BME280;36153;50.960;6.220;2023-11-21T11:34:46;100628.03;;;15.57;62.19
50268;BME280;36153;50.960;6.220;2023-11-21T11:37:47;100633.22;;;15.63;61.85
50268;BME280;36153;50.960;6.220;2023-11-21T11:40:52;100628.03;;;15.57;61.83
50268;BME280;36153;50.960;6.220;2023-11-21T11:43:54;100640.13;;;15.79;61.39
50268;BME280;36153;50.960;6.220;2023-11-21T11:46:56;100645.34;;;15.85;61.30
50268;BME280;36153;50.960;6.220;2023-11-21T11:50:10;100641.00;;;15.81;61.82
50268;BME280;36153;50.960;6.220;2023-11-21T11:53:14;100641.88;;;15.82;61.79
50268;BME280;36153;50.960;6.220;2023-11-21T11:56:29;100632.22;;;15.78;61.46
50268;BME280;36153;50.960;6.220;2023-11-21T12:00:10;100649.59;;;15.99;61.58
50268;BME280;36153;50.960;6.220;2023-11-21T12:03:17;100655.88;;;15.82;61.67
50268;BME280;36153;50.960;6.220;2023-11-21T12:06:18;100641.88;;;15.80;61.35
50268;BME280;36153;50.960;6.220;2023-11-21T12:09:24;100645.19;;;16.04;61.52
50268;BME280;36153;50.960;6.220;2023-11-21T12:12:26;100648.72;;;16.00;60.98
50268;BME280;36153;50.960;6.220;2023-11-21T12:15:27;100647.13;;;15.73;61.35
50268;BME280;36153;50.960;6.220;2023-11-21T12:18:31;100641.91;;;15.74;61.23
50268;BME280;36153;50.960;6.220;2023-11-21T12:21:32;100646.22;;;15.84;61.03
50268;BME280;36153;50.960;6.220;2023-11-21T12:24:32;100653.22;;;15.85;61.24
50268;BME280;36153;50.960;6.220;2023-11-21T12:27:33;100666.34;;;15.81;60.84
50268;BME280;36153;50.960;6.220;2023-11-21T12:30:34;100670.69;;;15.90;60.96
50268;BME280;36153;50.960;6.220;2023-11-21T12:33:38;100665.34;;;16.02;61.11
50268;BME280;36153;50.960;6.220;2023-11-21T12:36:38;100666.06;;;16.18;60.58
50268;BME280;36153;50.960;6.220;2023-11-21T12:39:39;100675.84;;;16.02;60.27
50268;BME280;36153;50.960;6.220;2023-11-21T12:42:39;100685.41;;;16.09;60.47
50268;BME280;36153;50.960;6.220;2023-11-21T12:45:41;100684.69;;;15.89;61.06
50268;BME280;36153;50.960;6.220;2023-11-21T12:48:41;100692.66;;;15.73;60.45
50268;BME280;36153;50.960;6.220;2023-11-21T12:51:46;100686.34;;;16.00;60.50
50268;BME280;36153;50.960;6.220;2023-11-21T12:54:46;100688.22;;;15.83;60.54
50268;BME280;36153;50.960;6.220;2023-11-21T12:57:51;100688.16;;;15.95;60.68
50268;BME280;36153;50.960;6.220;2023-11-21T13:00:51;100697.72;;;16.01;60.25
50268;BME280;36153;50.960;6.220;2023-11-21T13:03:54;100699.66;;;15.74;60.51
50268;BME280;36153;50.960;6.220;2023-11-21T13:06:54;100703.09;;;15.81;60.60
50268;BME280;36153;50.960;6.220;2023-11-21T13:09:56;100697.84;;;15.84;60.76
50268;BME280;36153;50.960;6.220;2023-11-21T13:12:58;100706.63;;;15.81;61.38
50268;BME280;36153;50.960;6.220;2023-11-21T13:16:01;100710.13;;;15.71;61.51
50268;BME280;36153;50.960;6.220;2023-11-21T13:19:04;100719.69;;;15.89;61.96
50268;BME280;36153;50.960;6.220;2023-11-21T13:22:05;100720.66;;;15.68;61.31
50268;BME280;36153;50.960;6.220;2023-11-21T13:25:05;100725.94;;;15.65;62.00
50268;BME280;36153;50.960;6.220;2023-11-21T13:28:08;100738.38;;;15.23;63.26
50268;BME280;36153;50.960;6.220;2023-11-21T13:31:11;100743.63;;;15.23;63.20
50268;BME280;36153;50.960;6.220;2023-11-21T13:34:23;100740.16;;;15.17;64.03
50268;BME280;36153;50.960;6.220;2023-11-21T13:37:27;100743.63;;;15.26;64.61
50268;BME280;36153;50.960;6.220;2023-11-21T13:40:28;100740.94;;;15.40;64.15
50268;BME280;36153;50.960;6.220;2023-11-21T13:43:28;100738.31;;;15.41;63.33
50268;BME280;36153;50.960;6.220;2023-11-21T13:46:29;100745.34;;;15.33;63.65
50268;BME280;36153;50.960;6.220;2023-11-21T13:49:35;100746.22;;;15.30;63.89
50268;BME280;36153;50.960;6.220;2023-11-21T13:52:40;100743.53;;;15.43;63.46
50268;BME280;36153;50.960;6.220;2023-11-21T13:55:41;100746.13;;;15.47;63.44
50268;BME280;36153;50.960;6.220;2023-11-21T13:58:41;100748.78;;;15.43;63.22
50268;BME280;36153;50.960;6.220;2023-11-21T14:01:47;100761.06;;;15.36;63.16
50268;BME280;36153;50.960;6.220;2023-11-21T14:04:55;100757.53;;;15.42;63.70
50268;BME280;36153;50.960;6.220;2023-11-21T14:08:00;100757.47;;;15.56;63.59
50268;BME280;36153;50.960;6.220;2023-11-21T14:11:04;100760.00;;;15.71;63.34
50268;BME280;36153;50.960;6.220;2023-11-21T14:14:06;100764.41;;;15.69;63.17
50268;BME280;36153;50.960;6.220;2023-11-21T14:17:07;100759.19;;;15.64;62.88
50268;BME280;36153;50.960;6.220;2023-11-21T14:20:09;100762.59;;;15.77;63.32
50268;BME280;36153;50.960;6.220;2023-11-21T14:23:15;100763.47;;;15.85;62.93
50268;BME280;36153;50.960;6.220;2023-11-21T14:26:16;100765.16;;;15.96;62.62
50268;BME280;36153;50.960;6.220;2023-11-21T14:29:18;100759.94;;;15.90;62.54
50268;BME280;36153;50.960;6.220;2023-11-21T14:32:23;100771.38;;;15.75;63.07
50268;BME280;36153;50.960;6.220;2023-11-21T14:35:25;100764.41;;;15.67;62.58
50268;BME280;36153;50.960;6.220;2023-11-21T14:38:26;100769.75;;;15.47;63.04
50268;BME280;36153;50.960;6.220;2023-11-21T14:41:28;100779.41;;;15.34;63.71
50268;BME280;36153;50.960;6.220;2023-11-21T14:44:29;100789.94;;;15.24;63.89
50268;BME280;36153;50.960;6.220;2023-11-21T14:47:35;100792.59;;;15.11;63.89
50268;BME280;36153;50.960;6.220;2023-11-21T14:50:38;100797.88;;;15.02;64.36
50268;BME280;36153;50.960;6.220;2023-11-21T14:53:41;100804.03;;;14.95;64.74
50268;BME280;36153;50.960;6.220;2023-11-21T14:56:53;100803.13;;;14.96;64.80
50268;BME280;36153;50.960;6.220;2023-11-21T14:59:53;100814.47;;;15.10;64.85
50268;BME280;36153;50.960;6.220;2023-11-21T15:02:58;100817.09;;;14.99;65.14
50268;BME280;36153;50.960;6.220;2023-11-21T15:06:03;100814.47;;;15.04;64.83
50268;BME280;36153;50.960;6.220;2023-11-21T15:09:19;100820.63;;;14.94;65.11
50268;BME280;36153;50.960;6.220;2023-11-21T15:12:34;100833.72;;;14.95;65.40
50268;BME280;36153;50.960;6.220;2023-11-21T15:15:38;100837.22;;;15.02;65.05
50268;BME280;36153;50.960;6.220;2023-11-21T15:18:41;100840.69;;;14.99;64.97
50268;BME280;36153;50.960;6.220;2023-11-21T15:21:41;100848.56;;;14.92;65.00
50268;BME280;36153;50.960;6.220;2023-11-21T15:24:42;100850.31;;;14.82;65.57
50268;BME280;36153;50.960;6.220;2023-11-21T15:27:45;100851.19;;;14.78;65.59
50268;BME280;36153;50.960;6.220;2023-11-21T15:30:49;100855.56;;;14.76;65.57
50268;BME280;36153;50.960;6.220;2023-11-21T15:33:52;100869.56;;;14.81;65.73
50268;BME280;36153;50.960;6.220;2023-11-21T15:36:53;100870.41;;;14.80;65.44
50268;BME280;36153;50.960;6.220;2023-11-21T15:39:54;100864.28;;;14.76;65.55
50268;BME280;36153;50.960;6.220;2023-11-21T15:42:54;100860.81;;;14.65;66.05
50268;BME280;36153;50.960;6.220;2023-11-21T15:45:55;100867.81;;;14.63;66.35
50268;BME280;36153;50.960;6.220;2023-11-21T15:48:56;100874.75;;;14.64;66.06
50268;BME280;36153;50.960;6.220;2023-11-21T15:51:56;100884.38;;;14.68;66.26
50268;BME280;36153;50.960;6.220;2023-11-21T15:54:59;100881.78;;;14.74;66.08